Terminal Aerodrome Forecast
Issued by NWS

Home | Current Version | Previous Version | Text Only | Print | Product List | Glossary On
Versions: 1 2 3 4 5 6 7 8 9 10 11 12 13 14 15 16 17 18
000
FTUS46 KSGX 061120
TAFONT
TAF
KONT 061120Z 0612/0718 VRB05KT P6SM OVC015
      TEMPO 0613/0617 5SM HZ
     FM061800 VRB06KT 6SM HZ SCT018
     FM062000 26013KT P6SM SKC
     FM070400 26005KT P6SM SCT015
     FM070700 VRB05KT P6SM OVC015=

USA.gov is the U.S. government's official web portal to all federal, state and local government web resources and services.